sensor_id;sensor_type;location;lat;lon;timestamp;pressure;altitude;pressure_sealevel;temperature;humidity
50322;BME280;36227;53.366;-1.426;2023-06-22T06:26:55;75134.81;;;-221.13;100.00
50322;BME280;36227;53.366;-1.426;2023-06-22T06:52:48;75176.87;;;-220.89;100.00
50322;BME280;36227;53.366;-1.426;2023-06-22T08:11:35;74705.74;;;-222.80;90.70
50322;BME280;36227;53.366;-1.426;2023-06-22T08:14:00;74699.55;;;-222.56;95.54
50322;BME280;36227;53.366;-1.426;2023-06-22T08:16:25;74942.18;;;-222.09;100.00
50322;BME280;36227;53.366;-1.426;2023-06-22T08:18:50;74704.48;;;-222.56;95.46
50322;BME280;36227;53.366;-1.426;2023-06-22T08:21:15;74600.79;;;-222.80;91.18
50322;BME280;36227;53.366;-1.426;2023-06-22T08:23:40;74537.64;;;-223.04;85.01
50322;BME280;36227;53.366;-1.426;2023-06-22T08:26:05;74877.14;;;-222.09;98.59
50322;BME280;36227;53.366;-1.426;2023-06-22T08:28:30;75068.75;;;-221.61;100.00
50322;BME280;36227;53.366;-1.426;2023-06-22T08:30:55;74948.50;;;-221.61;100.00
50322;BME280;36227;53.366;-1.426;2023-06-22T08:33:20;75038.18;;;-221.61;100.00
50322;BME280;36227;53.366;-1.426;2023-06-22T08:35:45;75047.40;;;-221.61;100.00
50322;BME280;36227;53.366;-1.426;2023-06-22T08:38:10;74766.62;;;-222.09;100.00
50322;BME280;36227;53.366;-1.426;2023-06-22T08:40:35;74977.80;;;-221.61;100.00
50322;BME280;36227;53.366;-1.426;2023-06-22T08:43:00;74876.76;;;-221.85;100.00
50322;BME280;36227;53.366;-1.426;2023-06-22T08:45:26;74976.29;;;-221.61;100.00
50322;BME280;36227;53.366;-1.426;2023-06-22T08:47:51;74930.69;;;-221.61;100.00
50322;BME280;36227;53.366;-1.426;2023-06-22T08:50:16;74724.81;;;-222.33;100.00
50322;BME280;36227;53.366;-1.426;2023-06-22T08:52:41;74616.96;;;-222.56;94.51
50322;BME280;36227;53.366;-1.426;2023-06-22T08:55:08;74831.03;;;-222.33;100.00
50322;BME280;36227;53.366;-1.426;2023-06-22T08:57:32;74916.80;;;-222.09;100.00
50322;BME280;36227;53.366;-1.426;2023-06-22T08:59:57;75005.84;;;-221.37;100.00
50322;BME280;36227;53.366;-1.426;2023-06-22T09:02:22;74695.13;;;-222.33;100.00
50322;BME280;36227;53.366;-1.426;2023-06-22T09:04:47;74789.23;;;-222.09;100.00
50322;BME280;36227;53.366;-1.426;2023-06-22T09:07:12;74876.13;;;-221.85;100.00
50322;BME280;36227;53.366;-1.426;2023-06-22T09:09:37;74983.74;;;-221.61;100.00
50322;BME280;36227;53.366;-1.426;2023-06-22T09:12:02;75140.74;;;-220.89;100.00
50322;BME280;36227;53.366;-1.426;2023-06-22T09:14:27;75145.04;;;-220.89;100.00
50322;BME280;36227;53.366;-1.426;2023-06-22T09:16:52;75072.41;;;-221.13;100.00
50322;BME280;36227;53.366;-1.426;2023-06-22T09:19:18;74852.38;;;-221.61;100.00
50322;BME280;36227;53.366;-1.426;2023-06-22T09:21:43;74859.58;;;-221.85;100.00
50322;BME280;36227;53.366;-1.426;2023-06-22T09:24:08;74726.08;;;-222.33;100.00
50322;BME280;36227;53.366;-1.426;2023-06-22T09:26:33;74520.09;;;-222.80;93.32
50322;BME280;36227;53.366;-1.426;2023-06-22T09:28:58;74912.25;;;-222.09;100.00
50322;BME280;36227;53.366;-1.426;2023-06-22T09:31:23;74927.53;;;-221.85;100.00
50322;BME280;36227;53.366;-1.426;2023-06-22T09:33:48;74870.69;;;-222.09;100.00
50322;BME280;36227;53.366;-1.426;2023-06-22T09:36:13;74760.68;;;-222.33;100.00
50322;BME280;36227;53.366;-1.426;2023-06-22T09:38:38;74838.36;;;-222.09;100.00
50322;BME280;36227;53.366;-1.426;2023-06-22T09:41:04;74968.33;;;-221.85;100.00
50322;BME280;36227;53.366;-1.426;2023-06-22T09:43:32;74772.68;;;-222.09;100.00
50322;BME280;36227;53.366;-1.426;2023-06-22T09:45:54;75034.64;;;-221.61;100.00
50322;BME280;36227;53.366;-1.426;2023-06-22T09:48:19;74963.28;;;-221.85;100.00
50322;BME280;36227;53.366;-1.426;2023-06-22T09:50:44;74615.69;;;-222.33;100.00
50322;BME280;36227;53.366;-1.426;2023-06-22T09:53:09;74709.53;;;-222.56;100.00
50322;BME280;36227;53.366;-1.426;2023-06-22T09:55:34;74867.41;;;-222.09;100.00
50322;BME280;36227;53.366;-1.426;2023-06-22T09:57:59;74967.07;;;-221.61;100.00
50322;BME280;36227;53.366;-1.426;2023-06-22T10:00:24;74864.88;;;-222.09;100.00
50322;BME280;36227;53.366;-1.426;2023-06-22T10:02:49;74938.65;;;-221.61;100.00
50322;BME280;36227;53.366;-1.426;2023-06-22T10:05:14;74679.09;;;-222.56;98.51
50322;BME280;36227;53.366;-1.426;2023-06-22T10:07:39;74675.81;;;-222.33;99.83
50322;BME280;36227;53.366;-1.426;2023-06-22T10:10:05;74867.41;;;-222.09;100.00
50322;BME280;36227;53.366;-1.426;2023-06-22T10:12:29;74877.26;;;-221.85;100.00
50322;BME280;36227;53.366;-1.426;2023-06-22T10:14:54;74931.45;;;-221.85;100.00
50322;BME280;36227;53.366;-1.426;2023-06-22T10:17:20;74904.17;;;-221.61;100.00
50322;BME280;36227;53.366;-1.426;2023-06-22T10:19:45;74824.97;;;-222.33;97.05
50322;BME280;36227;53.366;-1.426;2023-06-22T10:22:10;74462.37;;;-223.04;82.57
50322;BME280;36227;53.366;-1.426;2023-06-22T10:24:35;74743.00;;;-222.56;89.40
50322;BME280;36227;53.366;-1.426;2023-06-22T10:27:00;74815.25;;;-222.33;100.00
50322;BME280;36227;53.366;-1.426;2023-06-22T10:29:25;74722.79;;;-222.56;97.82
50322;BME280;36227;53.366;-1.426;2023-06-22T10:31:51;74440.90;;;-223.52;86.53
50322;BME280;36227;53.366;-1.426;2023-06-22T10:34:16;74446.33;;;-222.09;82.75
50322;BME280;36227;53.366;-1.426;2023-06-22T10:36:41;74397.58;;;-221.61;79.87
50322;BME280;36227;53.366;-1.426;2023-06-22T10:39:06;74339.49;;;-222.09;76.47
50322;BME280;36227;53.366;-1.426;2023-06-22T10:41:31;74295.04;;;-221.85;77.10
50322;BME280;36227;53.366;-1.426;2023-06-22T10:43:57;74368.79;;;-221.85;78.89
50322;BME280;36227;53.366;-1.426;2023-06-22T10:46:24;74330.02;;;-221.85;77.07
50322;BME280;36227;53.366;-1.426;2023-06-22T10:48:48;74248.82;;;-221.85;75.14
50322;BME280;36227;53.366;-1.426;2023-06-22T10:51:13;74335.95;;;-221.85;75.03
50322;BME280;36227;53.366;-1.426;2023-06-22T10:53:39;74548.12;;;-222.33;84.99
50322;BME280;36227;53.366;-1.426;2023-06-22T10:56:04;74731.00;;;-221.61;93.02
50322;BME280;36227;53.366;-1.426;2023-06-22T10:58:28;74756.26;;;-220.89;95.53
50322;BME280;36227;53.366;-1.426;2023-06-22T11:00:54;74568.96;;;-221.13;90.29
50322;BME280;36227;53.366;-1.426;2023-06-22T11:03:19;74595.86;;;-221.13;88.01
50322;BME280;36227;53.366;-1.426;2023-06-22T11:05:44;74496.34;;;-221.37;86.55
50322;BME280;36227;53.366;-1.426;2023-06-22T11:08:10;74782.66;;;-221.13;93.24
50322;BME280;36227;53.366;-1.426;2023-06-22T11:10:35;74604.96;;;-221.13;88.56
50322;BME280;36227;53.366;-1.426;2023-06-22T11:13:00;74457.32;;;-221.61;85.87
50322;BME280;36227;53.366;-1.426;2023-06-22T11:15:27;74546.61;;;-221.61;91.04
50322;BME280;36227;53.366;-1.426;2023-06-22T11:17:52;74480.18;;;-222.09;86.05
50322;BME280;36227;53.366;-1.426;2023-06-22T11:20:17;74572.63;;;-221.61;87.46
50322;BME280;36227;53.366;-1.426;2023-06-22T11:22:42;74642.97;;;-221.61;89.66
50322;BME280;36227;53.366;-1.426;2023-06-22T11:25:08;74484.35;;;-221.61;82.27
50322;BME280;36227;53.366;-1.426;2023-06-22T11:27:33;74436.10;;;-221.61;82.00
50322;BME280;36227;53.366;-1.426;2023-06-22T11:29:58;74607.23;;;-221.13;88.85
50322;BME280;36227;53.366;-1.426;2023-06-22T11:32:24;74669.24;;;-220.89;94.77
50322;BME280;36227;53.366;-1.426;2023-06-22T11:34:48;74582.98;;;-221.13;92.16
50322;BME280;36227;53.366;-1.426;2023-06-22T11:37:14;74739.34;;;-220.65;90.79
50322;BME280;36227;53.366;-1.426;2023-06-22T11:39:39;74778.87;;;-221.37;98.10
50322;BME280;36227;53.366;-1.426;2023-06-22T11:42:05;74547.37;;;-221.13;86.12
50322;BME280;36227;53.366;-1.426;2023-06-22T11:44:29;74462.37;;;-221.61;82.45
50322;BME280;36227;53.366;-1.426;2023-06-22T11:46:55;74803.00;;;-220.89;89.85
50322;BME280;36227;53.366;-1.426;2023-06-22T11:49:20;74657.37;;;-221.13;88.34
50322;BME280;36227;53.366;-1.426;2023-06-22T11:51:45;74658.76;;;-221.13;89.64
50322;BME280;36227;53.366;-1.426;2023-06-22T11:54:11;74593.46;;;-221.13;90.04
50322;BME280;36227;53.366;-1.426;2023-06-22T11:56:36;74841.77;;;-220.65;95.43
50322;BME280;36227;53.366;-1.426;2023-06-22T11:59:01;74817.65;;;-220.17;98.12
50322;BME280;36227;53.366;-1.426;2023-06-22T12:01:27;74838.99;;;-220.65;100.00
50322;BME280;36227;53.366;-1.426;2023-06-22T12:03:51;74713.83;;;-221.13;94.45
50322;BME280;36227;53.366;-1.426;2023-06-22T12:06:17;74549.51;;;-221.13;88.35
50322;BME280;36227;53.366;-1.426;2023-06-22T12:08:42;74461.87;;;-221.37;85.14
50322;BME280;36227;53.366;-1.426;2023-06-22T12:11:07;74694.38;;;-220.65;94.85
50322;BME280;36227;53.366;-1.426;2023-06-22T12:13:33;74755.25;;;-220.65;94.87
50322;BME280;36227;53.366;-1.426;2023-06-22T12:15:58;74616.32;;;-220.89;89.49
50322;BME280;36227;53.366;-1.426;2023-06-22T12:18:23;74680.23;;;-220.41;91.10
50322;BME280;36227;53.366;-1.426;2023-06-22T12:20:49;74494.07;;;-220.89;84.30
50322;BME280;36227;53.366;-1.426;2023-06-22T12:23:15;74373.97;;;-221.61;77.71
50322;BME280;36227;53.366;-1.426;2023-06-22T12:25:40;74461.36;;;-222.09;80.58
50322;BME280;36227;53.366;-1.426;2023-06-22T12:28:06;74627.94;;;-221.13;95.64
50322;BME280;36227;53.366;-1.426;2023-06-22T12:30:32;74736.69;;;-220.41;100.00
50322;BME280;36227;53.366;-1.426;2023-06-22T12:32:56;74707.39;;;-220.65;100.00
50322;BME280;36227;53.366;-1.426;2023-06-22T12:35:22;74698.54;;;-220.89;99.32
50322;BME280;36227;53.366;-1.426;2023-06-22T12:37:47;74787.71;;;-220.17;100.00
50322;BME280;36227;53.366;-1.426;2023-06-22T12:40:13;74759.93;;;-219.93;100.00
50322;BME280;36227;53.366;-1.426;2023-06-22T12:42:38;74910.99;;;-219.70;100.00
50322;BME280;36227;53.366;-1.426;2023-06-22T12:45:05;74678.21;;;-220.17;100.00
50322;BME280;36227;53.366;-1.426;2023-06-22T12:47:29;74711.68;;;-221.13;100.00
50322;BME280;36227;53.366;-1.426;2023-06-22T12:49:55;74624.53;;;-220.89;97.46
50322;BME280;36227;53.366;-1.426;2023-06-22T12:52:20;74694.50;;;-220.65;97.01
50322;BME280;36227;53.366;-1.426;2023-06-22T12:54:45;74464.01;;;-221.13;88.02
50322;BME280;36227;53.366;-1.426;2023-06-22T12:57:11;74496.09;;;-221.37;82.78
50322;BME280;36227;53.366;-1.426;2023-06-22T12:59:36;74591.57;;;-221.13;84.35
50322;BME280;36227;53.366;-1.426;2023-06-22T13:02:01;74624.79;;;-221.13;82.26
50322;BME280;36227;53.366;-1.426;2023-06-22T13:04:27;74560.88;;;-221.13;85.48
50322;BME280;36227;53.366;-1.426;2023-06-22T13:06:52;74767.38;;;-220.41;92.57
50322;BME280;36227;53.366;-1.426;2023-06-22T13:09:18;74585.76;;;-221.61;87.05
50322;BME280;36227;53.366;-1.426;2023-06-22T13:11:43;74673.66;;;-221.37;87.81
50322;BME280;36227;53.366;-1.426;2023-06-22T13:14:08;74791.00;;;-220.17;87.39
50322;BME280;36227;53.366;-1.426;2023-06-22T13:16:33;74680.36;;;-220.65;88.56
50322;BME280;36227;53.366;-1.426;2023-06-22T13:18:58;74710.16;;;-220.17;89.21
50322;BME280;36227;53.366;-1.426;2023-06-22T13:21:23;74672.40;;;-220.65;86.41
50322;BME280;36227;53.366;-1.426;2023-06-22T13:23:48;74641.96;;;-220.65;87.48
50322;BME280;36227;53.366;-1.426;2023-06-22T13:26:14;74693.11;;;-220.65;90.65
50322;BME280;36227;53.366;-1.426;2023-06-22T13:28:39;74636.03;;;-220.65;89.32
50322;BME280;36227;53.366;-1.426;2023-06-22T13:31:04;74454.67;;;-221.13;80.53
50322;BME280;36227;53.366;-1.426;2023-06-22T13:33:30;74554.82;;;-221.61;77.19
50322;BME280;36227;53.366;-1.426;2023-06-22T13:35:54;74503.92;;;-221.85;77.88
50322;BME280;36227;53.366;-1.426;2023-06-22T13:38:19;74561.01;;;-221.13;78.55
50322;BME280;36227;53.366;-1.426;2023-06-22T13:40:45;74577.80;;;-221.37;78.96
50322;BME280;36227;53.366;-1.426;2023-06-22T13:43:09;74439.39;;;-221.61;73.71
50322;BME280;36227;53.366;-1.426;2023-06-22T13:45:35;74392.53;;;-221.61;73.30
50322;BME280;36227;53.366;-1.426;2023-06-22T13:48:00;74411.35;;;-221.13;73.14
50322;BME280;36227;53.366;-1.426;2023-06-22T13:50:26;74417.92;;;-221.61;76.48
50322;BME280;36227;53.366;-1.426;2023-06-22T13:52:50;74414.63;;;-221.61;78.77
50322;BME280;36227;53.366;-1.426;2023-06-22T13:55:16;74439.89;;;-221.61;79.91
50322;BME280;36227;53.366;-1.426;2023-06-22T13:57:42;74274.83;;;-222.33;73.26
50322;BME280;36227;53.366;-1.426;2023-06-22T14:00:08;74429.79;;;-221.85;73.86
50322;BME280;36227;53.366;-1.426;2023-06-22T14:02:31;74352.37;;;-221.61;69.28
50322;BME280;36227;53.366;-1.426;2023-06-22T14:04:56;74429.16;;;-221.37;68.93
50322;BME280;36227;53.366;-1.426;2023-06-22T14:07:22;74378.51;;;-221.61;70.16
50322;BME280;36227;53.366;-1.426;2023-06-22T14:09:47;74242.50;;;-222.09;69.38
50322;BME280;36227;53.366;-1.426;2023-06-22T14:12:12;74325.22;;;-221.85;73.26
50322;BME280;36227;53.366;-1.426;2023-06-22T14:14:37;74236.44;;;-222.09;71.85
50322;BME280;36227;53.366;-1.426;2023-06-22T14:17:04;74215.98;;;-222.09;73.04
50322;BME280;36227;53.366;-1.426;2023-06-22T14:19:28;74225.45;;;-223.04;72.18
50322;BME280;36227;53.366;-1.426;2023-06-22T14:21:53;74382.81;;;-222.56;75.47
50322;BME280;36227;53.366;-1.426;2023-06-22T14:24:18;74397.33;;;-222.09;76.58
50322;BME280;36227;53.366;-1.426;2023-06-22T14:26:43;74478.79;;;-221.61;77.41
50322;BME280;36227;53.366;-1.426;2023-06-22T14:29:09;74501.90;;;-221.61;79.07
50322;BME280;36227;53.366;-1.426;2023-06-22T14:31:34;74454.16;;;-221.61;78.21
50322;BME280;36227;53.366;-1.426;2023-06-22T14:34:00;74587.91;;;-221.37;84.76
50322;BME280;36227;53.366;-1.426;2023-06-22T14:36:25;74677.07;;;-220.65;88.92
50322;BME280;36227;53.366;-1.426;2023-06-22T14:38:50;74552.42;;;-220.65;86.62
50322;BME280;36227;53.366;-1.426;2023-06-22T14:41:15;74495.21;;;-220.89;80.90
50322;BME280;36227;53.366;-1.426;2023-06-22T14:43:44;74446.96;;;-221.61;80.19
50322;BME280;36227;53.366;-1.426;2023-06-22T14:46:05;74404.02;;;-221.13;76.85
50322;BME280;36227;53.366;-1.426;2023-06-22T14:48:30;74494.95;;;-220.89;79.54
50322;BME280;36227;53.366;-1.426;2023-06-22T14:50:55;74611.90;;;-220.65;81.52
50322;BME280;36227;53.366;-1.426;2023-06-22T14:53:20;74567.95;;;-220.65;81.74
50322;BME280;36227;53.366;-1.426;2023-06-22T14:55:46;74544.21;;;-220.65;79.45
50322;BME280;36227;53.366;-1.426;2023-06-22T14:58:11;74553.81;;;-220.89;79.69
50322;BME280;36227;53.366;-1.426;2023-06-22T15:00:36;74548.12;;;-220.65;79.36
50322;BME280;36227;53.366;-1.426;2023-06-22T15:03:03;74648.28;;;-220.41;82.97
50322;BME280;36227;53.366;-1.426;2023-06-22T15:05:27;74631.99;;;-221.13;80.77
50322;BME280;36227;53.366;-1.426;2023-06-22T15:07:51;74518.82;;;-221.13;77.76
50322;BME280;36227;53.366;-1.426;2023-06-22T15:10:17;74543.20;;;-221.13;77.28
50322;BME280;36227;53.366;-1.426;2023-06-22T15:12:42;74549.39;;;-220.89;76.35
50322;BME280;36227;53.366;-1.426;2023-06-22T15:15:08;74518.19;;;-221.37;74.79
50322;BME280;36227;53.366;-1.426;2023-06-22T15:17:32;74488.13;;;-221.13;73.93
50322;BME280;36227;53.366;-1.426;2023-06-22T15:19:58;74395.94;;;-220.89;72.17
50322;BME280;36227;53.366;-1.426;2023-06-22T15:22:22;74415.64;;;-220.89;77.69
50322;BME280;36227;53.366;-1.426;2023-06-22T15:24:47;74473.61;;;-220.65;82.26
50322;BME280;36227;53.366;-1.426;2023-06-22T15:27:13;74522.99;;;-220.65;84.25
50322;BME280;36227;53.366;-1.426;2023-06-22T15:29:37;74654.34;;;-220.65;89.44
50322;BME280;36227;53.366;-1.426;2023-06-22T15:32:03;74698.29;;;-219.70;91.85
50322;BME280;36227;53.366;-1.426;2023-06-22T15:34:27;74658.63;;;-219.93;88.81
50322;BME280;36227;53.366;-1.426;2023-06-22T15:36:53;74642.97;;;-219.93;86.45
50322;BME280;36227;53.366;-1.426;2023-06-22T15:39:18;74625.17;;;-219.93;86.26
50322;BME280;36227;53.366;-1.426;2023-06-22T15:41:43;74628.83;;;-219.70;89.53
50322;BME280;36227;53.366;-1.426;2023-06-22T15:44:08;74623.27;;;-219.93;91.68
50322;BME280;36227;53.366;-1.426;2023-06-22T15:46:33;74602.94;;;-220.17;93.76
50322;BME280;36227;53.366;-1.426;2023-06-22T15:48:58;74625.67;;;-219.93;96.10
50322;BME280;36227;53.366;-1.426;2023-06-22T15:51:23;74666.46;;;-220.41;95.04
50322;BME280;36227;53.366;-1.426;2023-06-22T15:53:48;74666.21;;;-220.17;96.62
50322;BME280;36227;53.366;-1.426;2023-06-22T15:56:13;74703.60;;;-219.93;100.00
50322;BME280;36227;53.366;-1.426;2023-06-22T15:58:38;74681.49;;;-219.70;100.00
50322;BME280;36227;53.366;-1.426;2023-06-22T16:01:03;74731.38;;;-219.70;100.00
50322;BME280;36227;53.366;-1.426;2023-06-22T16:03:28;74822.70;;;-219.22;100.00
50322;BME280;36227;53.366;-1.426;2023-06-22T16:05:54;74763.08;;;-219.22;100.00
50322;BME280;36227;53.366;-1.426;2023-06-22T16:08:19;74687.43;;;-219.70;100.00
50322;BME280;36227;53.366;-1.426;2023-06-22T16:10:44;74621.00;;;-220.17;95.82
50322;BME280;36227;53.366;-1.426;2023-06-22T16:13:09;74633.12;;;-220.17;93.72
50322;BME280;36227;53.366;-1.426;2023-06-22T16:15:34;74565.30;;;-221.13;89.91
50322;BME280;36227;53.366;-1.426;2023-06-22T16:17:59;74476.77;;;-221.13;86.88
50322;BME280;36227;53.366;-1.426;2023-06-22T16:20:24;74457.57;;;-221.37;84.40
50322;BME280;36227;53.366;-1.426;2023-06-22T16:22:49;74396.07;;;-221.13;83.93
50322;BME280;36227;53.366;-1.426;2023-06-22T16:25:14;74349.72;;;-221.13;78.24
50322;BME280;36227;53.366;-1.426;2023-06-22T16:27:39;74250.46;;;-221.37;74.41
50322;BME280;36227;53.366;-1.426;2023-06-22T16:30:06;74242.50;;;-221.37;75.07
50322;BME280;36227;53.366;-1.426;2023-06-22T16:32:29;74224.44;;;-221.13;71.13
50322;BME280;36227;53.366;-1.426;2023-06-22T16:34:54;74202.72;;;-221.13;70.67
50322;BME280;36227;53.366;-1.426;2023-06-22T16:37:20;74126.57;;;-221.85;68.95
50322;BME280;36227;53.366;-1.426;2023-06-22T16:39:45;74197.55;;;-222.56;68.28
50322;BME280;36227;53.366;-1.426;2023-06-22T16:42:10;74067.60;;;-222.09;64.10
50322;BME280;36227;53.366;-1.426;2023-06-22T16:44:35;74131.75;;;-222.33;66.69
50322;BME280;36227;53.366;-1.426;2023-06-22T16:47:00;73901.29;;;-222.56;62.02
50322;BME280;36227;53.366;-1.426;2023-06-22T16:49:25;73866.82;;;-222.56;57.67
50322;BME280;36227;53.366;-1.426;2023-06-22T16:51:50;73991.71;;;-222.09;62.02
50322;BME280;36227;53.366;-1.426;2023-06-22T16:54:15;74038.30;;;-222.09;63.32
50322;BME280;36227;53.366;-1.426;2023-06-22T16:56:42;74151.83;;;-222.09;66.12
50322;BME280;36227;53.366;-1.426;2023-06-22T16:59:06;74103.47;;;-221.85;65.67
50322;BME280;36227;53.366;-1.426;2023-06-22T17:01:33;74285.44;;;-222.56;68.14
50322;BME280;36227;53.366;-1.426;2023-06-22T17:04:04;74253.62;;;-222.09;70.80
50322;BME280;36227;53.366;-1.426;2023-06-22T17:06:22;74216.49;;;-221.61;69.45
50322;BME280;36227;53.366;-1.426;2023-06-22T17:08:47;74234.80;;;-221.37;69.83
50322;BME280;36227;53.366;-1.426;2023-06-22T17:11:13;74227.60;;;-221.61;69.82
50322;BME280;36227;53.366;-1.426;2023-06-22T17:13:36;74228.11;;;-221.85;69.74
50322;BME280;36227;53.366;-1.426;2023-06-22T17:16:03;74045.76;;;-222.09;65.04
50322;BME280;36227;53.366;-1.426;2023-06-22T17:18:28;74218.89;;;-221.61;67.36
50322;BME280;36227;53.366;-1.426;2023-06-22T17:20:52;74259.17;;;-221.61;70.24
50322;BME280;36227;53.366;-1.426;2023-06-22T17:23:17;74327.75;;;-221.85;72.97
50322;BME280;36227;53.366;-1.426;2023-06-22T17:25:43;74297.06;;;-222.09;71.80
50322;BME280;36227;53.366;-1.426;2023-06-22T17:28:07;74541.18;;;-221.37;78.34
50322;BME280;36227;53.366;-1.426;2023-06-22T17:30:32;74281.40;;;-221.85;73.08
50322;BME280;36227;53.366;-1.426;2023-06-22T17:32:58;74471.34;;;-221.13;78.00
50322;BME280;36227;53.366;-1.426;2023-06-22T17:35:23;74472.35;;;-221.13;76.78
50322;BME280;36227;53.366;-1.426;2023-06-22T17:37:50;74528.80;;;-220.89;76.09
50322;BME280;36227;53.366;-1.426;2023-06-22T17:40:15;74365.89;;;-221.13;72.19
50322;BME280;36227;53.366;-1.426;2023-06-22T17:42:39;74218.26;;;-221.61;67.62
50322;BME280;36227;53.366;-1.426;2023-06-22T17:45:16;74463.63;;;-221.37;72.00
50322;BME280;36227;53.366;-1.426;2023-06-22T17:47:30;74538.90;;;-221.61;75.72
50322;BME280;36227;53.366;-1.426;2023-06-22T17:50:05;74263.47;;;-221.61;68.10
50322;BME280;36227;53.366;-1.426;2023-06-22T17:52:20;74244.14;;;-221.61;66.17
50322;BME280;36227;53.366;-1.426;2023-06-22T17:54:46;74198.05;;;-221.85;65.85
50322;BME280;36227;53.366;-1.426;2023-06-22T17:57:15;74181.76;;;-222.09;64.51
50322;BME280;36227;53.366;-1.426;2023-06-22T17:59:36;74082.63;;;-222.09;62.40
50322;BME280;36227;53.366;-1.426;2023-06-22T18:02:07;74036.66;;;-222.09;61.25
50322;BME280;36227;53.366;-1.426;2023-06-22T18:04:27;73994.11;;;-222.56;59.60
50322;BME280;36227;53.366;-1.426;2023-06-22T18:06:52;73891.70;;;-222.56;56.25
50322;BME280;36227;53.366;-1.426;2023-06-22T18:09:18;74071.52;;;-223.04;60.62
50322;BME280;36227;53.366;-1.426;2023-06-22T18:11:44;74001.81;;;-223.04;60.71
50322;BME280;36227;53.366;-1.426;2023-06-22T18:14:09;73897.38;;;-222.80;58.64
50322;BME280;36227;53.366;-1.426;2023-06-22T18:16:35;73954.33;;;-222.56;61.12
50322;BME280;36227;53.366;-1.426;2023-06-22T18:19:00;74045.38;;;-222.09;64.16
50322;BME280;36227;53.366;-1.426;2023-06-22T18:21:25;74159.66;;;-222.09;68.70
50322;BME280;36227;53.366;-1.426;2023-06-22T18:23:50;74112.30;;;-222.33;67.66
50322;BME280;36227;53.366;-1.426;2023-06-22T18:26:15;73971.50;;;-222.33;63.57
50322;BME280;36227;53.366;-1.426;2023-06-22T18:28:40;73950.29;;;-222.56;61.49
50322;BME280;36227;53.366;-1.426;2023-06-22T18:31:05;73992.47;;;-222.56;62.97
50322;BME280;36227;53.366;-1.426;2023-06-22T18:33:30;74025.55;;;-222.80;64.14
50322;BME280;36227;53.366;-1.426;2023-06-22T18:35:56;74051.44;;;-222.09;65.07
50322;BME280;36227;53.366;-1.426;2023-06-22T18:38:21;74025.42;;;-222.56;65.25
50322;BME280;36227;53.366;-1.426;2023-06-22T18:40:49;74058.26;;;-222.56;66.71
50322;BME280;36227;53.366;-1.426;2023-06-22T18:43:20;74062.80;;;-222.33;66.30
50322;BME280;36227;53.366;-1.426;2023-06-22T18:45:37;74068.36;;;-222.33;65.69
50322;BME280;36227;53.366;-1.426;2023-06-22T18:48:05;74127.33;;;-221.85;66.86
50322;BME280;36227;53.366;-1.426;2023-06-22T18:50:39;74117.61;;;-222.09;68.13
50322;BME280;36227;53.366;-1.426;2023-06-22T18:53:02;74070.63;;;-222.09;65.56
50322;BME280;36227;53.366;-1.426;2023-06-22T18:55:19;74030.73;;;-223.04;64.59
50322;BME280;36227;53.366;-1.426;2023-06-22T18:57:44;74021.00;;;-222.56;63.32
50322;BME280;36227;53.366;-1.426;2023-06-22T19:00:10;74066.72;;;-222.56;65.33
50322;BME280;36227;53.366;-1.426;2023-06-22T19:02:41;74056.49;;;-222.56;64.44
50322;BME280;36227;53.366;-1.426;2023-06-22T19:05:05;74001.31;;;-222.56;64.38
50322;BME280;36227;53.366;-1.426;2023-06-22T19:12:21;74162.56;;;-221.85;71.37
50322;BME280;36227;53.366;-1.426;2023-06-22T19:14:41;74166.86;;;-221.85;72.46
50322;BME280;36227;53.366;-1.426;2023-06-22T19:17:06;74318.40;;;-222.09;80.06
50322;BME280;36227;53.366;-1.426;2023-06-22T19:19:34;74478.41;;;-221.85;90.00
50322;BME280;36227;53.366;-1.426;2023-06-22T19:21:58;74505.18;;;-221.13;94.14
50322;BME280;36227;53.366;-1.426;2023-06-22T19:24:27;74544.59;;;-220.89;99.64
50322;BME280;36227;53.366;-1.426;2023-06-22T19:26:50;74588.29;;;-220.65;100.00
50322;BME280;36227;53.366;-1.426;2023-06-22T19:29:15;74580.71;;;-220.65;100.00
50322;BME280;36227;53.366;-1.426;2023-06-22T19:31:42;74618.85;;;-220.65;100.00
50322;BME280;36227;53.366;-1.426;2023-06-22T19:34:04;74669.12;;;-220.17;100.00
50322;BME280;36227;53.366;-1.426;2023-06-22T19:36:31;74717.49;;;-220.17;100.00
50322;BME280;36227;53.366;-1.426;2023-06-22T19:38:58;74741.74;;;-220.41;100.00
50322;BME280;36227;53.366;-1.426;2023-06-22T19:41:21;74720.77;;;-220.65;100.00
50322;BME280;36227;53.366;-1.426;2023-06-22T19:43:45;74779.63;;;-220.17;100.00
50322;BME280;36227;53.366;-1.426;2023-06-22T19:46:10;74748.05;;;-220.17;100.00
50322;BME280;36227;53.366;-1.426;2023-06-22T19:48:35;74759.04;;;-220.17;100.00
50322;BME280;36227;53.366;-1.426;2023-06-22T19:51:04;74828.76;;;-219.93;100.00
50322;BME280;36227;53.366;-1.426;2023-06-22T19:53:26;74766.87;;;-220.17;100.00
50322;BME280;36227;53.366;-1.426;2023-06-22T19:55:51;74805.02;;;-219.70;100.00
50322;BME280;36227;53.366;-1.426;2023-06-22T19:58:17;74818.53;;;-219.70;100.00
50322;BME280;36227;53.366;-1.426;2023-06-22T20:00:43;74843.41;;;-219.70;100.00
50322;BME280;36227;53.366;-1.426;2023-06-22T20:03:09;74854.02;;;-220.17;100.00
50322;BME280;36227;53.366;-1.426;2023-06-22T20:05:39;74873.85;;;-219.70;100.00
50322;BME280;36227;53.366;-1.426;2023-06-22T20:08:02;74848.21;;;-219.93;100.00
50322;BME280;36227;53.366;-1.426;2023-06-22T20:10:24;74825.60;;;-219.93;100.00
50322;BME280;36227;53.366;-1.426;2023-06-22T20:12:50;74822.32;;;-219.93;100.00
50322;BME280;36227;53.366;-1.426;2023-06-22T20:15:20;74827.62;;;-219.70;100.00
50322;BME280;36227;53.366;-1.426;2023-06-22T20:17:40;74861.10;;;-219.70;100.00
50322;BME280;36227;53.366;-1.426;2023-06-22T20:20:05;74883.83;;;-219.70;100.00
50322;BME280;36227;53.366;-1.426;2023-06-22T20:22:29;74836.72;;;-219.93;100.00
50322;BME280;36227;53.366;-1.426;2023-06-22T20:24:56;74828.38;;;-220.65;100.00
50322;BME280;36227;53.366;-1.426;2023-06-22T20:27:21;74821.56;;;-220.41;100.00